AIJ2232 MMMX-MMLO
Flight info
| Callsign | AIJ2232 |
|---|---|
| Flight time | 0h 36m |
| Altitude | 28000 |
| Route | SEBON3A SEBON UT125 MLM UJ40 OMINA OMINA1D |
| Aircraft | A320/M-SDE3FGHIRWY/LB1 |
Departure
| Time | 2026-05-07 03:42 |
|---|---|
| Airport | Mexico City Benito Juárez International Airport (MMMX) |
Arrival
| Time | 2026-05-07 04:18 |
|---|---|
| Airport | Guanajuato International Airport (MMLO) |
| Time | Latitude | Longitude | Altitude | Speed | Heading |
|---|---|---|---|---|---|
| 2026-05-07 03:03 | 19.43391 | -99.08348 | 7303 ft | 0 kts | 328° |
| 2026-05-07 03:30 | 19.43382 | -99.08342 | 7303 ft | 4 kts | 330° |
| 2026-05-07 03:31 | 19.43358 | -99.08329 | 7303 ft | 4 kts | 339° |
| 2026-05-07 03:31 | 19.43332 | -99.08321 | 7303 ft | 4 kts | 352° |
| 2026-05-07 03:31 | 19.43306 | -99.08321 | 7303 ft | 4 kts | 24° |
| 2026-05-07 03:31 | 19.43294 | -99.08329 | 7303 ft | 0 kts | 59° |
| 2026-05-07 03:34 | 19.43306 | -99.08309 | 7303 ft | 7 kts | 59° |
| 2026-05-07 03:34 | 19.43340 | -99.08249 | 7303 ft | 11 kts | 59° |
| 2026-05-07 03:35 | 19.43380 | -99.08178 | 7303 ft | 12 kts | 59° |
| 2026-05-07 03:35 | 19.43423 | -99.08102 | 7303 ft | 12 kts | 59° |
| 2026-05-07 03:35 | 19.43468 | -99.08021 | 7303 ft | 13 kts | 59° |
| 2026-05-07 03:35 | 19.43516 | -99.07936 | 7303 ft | 14 kts | 59° |
| 2026-05-07 03:36 | 19.43565 | -99.07849 | 7303 ft | 14 kts | 59° |
| 2026-05-07 03:36 | 19.43616 | -99.07759 | 7303 ft | 14 kts | 58° |
| 2026-05-07 03:36 | 19.43662 | -99.07675 | 7303 ft | 11 kts | 61° |
| 2026-05-07 03:36 | 19.43701 | -99.07601 | 7303 ft | 12 kts | 58° |
| 2026-05-07 03:37 | 19.43746 | -99.07524 | 7303 ft | 13 kts | 58° |
| 2026-05-07 03:37 | 19.43793 | -99.07443 | 7295 ft | 13 kts | 59° |
| 2026-05-07 03:37 | 19.43843 | -99.07355 | 7303 ft | 15 kts | 59° |
| 2026-05-07 03:37 | 19.43899 | -99.07253 | 7303 ft | 17 kts | 59° |
| 2026-05-07 03:38 | 19.43965 | -99.07139 | 7303 ft | 19 kts | 58° |
| 2026-05-07 03:38 | 19.44010 | -99.07057 | 7303 ft | 13 kts | 60° |
| 2026-05-07 03:38 | 19.44058 | -99.06969 | 7303 ft | 15 kts | 59° |
| 2026-05-07 03:38 | 19.44115 | -99.06868 | 7303 ft | 17 kts | 58° |
| 2026-05-07 03:39 | 19.44177 | -99.06760 | 7303 ft | 18 kts | 58° |
| 2026-05-07 03:39 | 19.44241 | -99.06642 | 7303 ft | 17 kts | 62° |
| 2026-05-07 03:39 | 19.44298 | -99.06542 | 7303 ft | 14 kts | 57° |
| 2026-05-07 03:39 | 19.44355 | -99.06445 | 7303 ft | 17 kts | 58° |
| 2026-05-07 03:40 | 19.44406 | -99.06358 | 7303 ft | 13 kts | 59° |
| 2026-05-07 03:40 | 19.44415 | -99.06264 | 7303 ft | 13 kts | 104° |
| 2026-05-07 03:40 | 19.44377 | -99.06195 | 7301 ft | 10 kts | 173° |
| 2026-05-07 03:40 | 19.44343 | -99.06231 | 7301 ft | 0 kts | 238° |
| 2026-05-07 03:41 | 19.44244 | -99.06407 | 7303 ft | 68 kts | 239° |
| 2026-05-07 03:41 | 19.43865 | -99.07082 | 7303 ft | 143 kts | 239° |
| 2026-05-07 03:42 | 19.43252 | -99.08171 | 7455 ft | 191 kts | 243° |
| 2026-05-07 03:42 | 19.42792 | -99.08995 | 8020 ft | 201 kts | 242° |
| 2026-05-07 03:42 | 19.41896 | -99.10593 | 9273 ft | 195 kts | 240° |
| 2026-05-07 03:42 | 19.41308 | -99.11628 | 9544 ft | 200 kts | 240° |
| 2026-05-07 03:43 | 19.40553 | -99.12961 | 9791 ft | 214 kts | 240° |
| 2026-05-07 03:43 | 19.39793 | -99.14312 | 10232 ft | 218 kts | 240° |
| 2026-05-07 03:43 | 19.39015 | -99.15699 | 10669 ft | 220 kts | 240° |
| 2026-05-07 03:43 | 19.38230 | -99.17094 | 11085 ft | 222 kts | 239° |
| 2026-05-07 03:44 | 19.37412 | -99.18546 | 11262 ft | 238 kts | 239° |
| 2026-05-07 03:44 | 19.36707 | -99.20160 | 11549 ft | 245 kts | 262° |
| 2026-05-07 03:44 | 19.36950 | -99.21917 | 11944 ft | 246 kts | 300° |
| 2026-05-07 03:44 | 19.38038 | -99.23311 | 12377 ft | 248 kts | 318° |
| 2026-05-07 03:45 | 19.39390 | -99.24457 | 12823 ft | 250 kts | 324° |
| 2026-05-07 03:45 | 19.40813 | -99.25523 | 13280 ft | 252 kts | 325° |
| 2026-05-07 03:45 | 19.42259 | -99.26599 | 13728 ft | 255 kts | 324° |
| 2026-05-07 03:45 | 19.43745 | -99.27737 | 13878 ft | 274 kts | 323° |
| 2026-05-07 03:46 | 19.45301 | -99.28969 | 14256 ft | 282 kts | 323° |
| 2026-05-07 03:46 | 19.46863 | -99.30255 | 14760 ft | 286 kts | 317° |
| 2026-05-07 03:46 | 19.47988 | -99.31973 | 15243 ft | 288 kts | 285° |
| 2026-05-07 03:46 | 19.48116 | -99.34071 | 15726 ft | 289 kts | 259° |
| 2026-05-07 03:47 | 19.47574 | -99.36177 | 15935 ft | 306 kts | 248° |
| 2026-05-07 03:47 | 19.46705 | -99.38310 | 16134 ft | 322 kts | 243° |
| 2026-05-07 03:47 | 19.45722 | -99.40471 | 16623 ft | 329 kts | 243° |
| 2026-05-07 03:47 | 19.44740 | -99.42679 | 17198 ft | 333 kts | 244° |
| 2026-05-07 03:48 | 19.43806 | -99.44933 | 17782 ft | 336 kts | 245° |
| 2026-05-07 03:48 | 19.42931 | -99.47205 | 18363 ft | 339 kts | 246° |
| 2026-05-07 03:48 | 19.42071 | -99.49539 | 18904 ft | 342 kts | 247° |
| 2026-05-07 03:48 | 19.41219 | -99.51906 | 19414 ft | 345 kts | 247° |
| 2026-05-07 03:49 | 19.40370 | -99.54288 | 19917 ft | 347 kts | 247° |
| 2026-05-07 03:49 | 19.39518 | -99.56681 | 20425 ft | 348 kts | 247° |
| 2026-05-07 03:49 | 19.38675 | -99.59092 | 20923 ft | 351 kts | 251° |
| 2026-05-07 03:49 | 19.38153 | -99.61635 | 21331 ft | 359 kts | 262° |
| 2026-05-07 03:50 | 19.37963 | -99.64328 | 21446 ft | 374 kts | 264° |
| 2026-05-07 03:50 | 19.37792 | -99.67123 | 21552 ft | 387 kts | 264° |
| 2026-05-07 03:50 | 19.37619 | -99.70022 | 21646 ft | 401 kts | 265° |
| 2026-05-07 03:50 | 19.37441 | -99.73006 | 21827 ft | 411 kts | 265° |
| 2026-05-07 03:51 | 19.37257 | -99.76043 | 22190 ft | 415 kts | 264° |
| 2026-05-07 03:51 | 19.37073 | -99.79101 | 22600 ft | 418 kts | 265° |
| 2026-05-07 03:51 | 19.36887 | -99.82180 | 23026 ft | 420 kts | 264° |
| 2026-05-07 03:51 | 19.36697 | -99.85273 | 23427 ft | 422 kts | 264° |
| 2026-05-07 03:52 | 19.36499 | -99.88384 | 23813 ft | 425 kts | 264° |
| 2026-05-07 03:52 | 19.36298 | -99.91513 | 24122 ft | 427 kts | 264° |
| 2026-05-07 03:52 | 19.36095 | -99.94651 | 24434 ft | 429 kts | 264° |
| 2026-05-07 03:52 | 19.35893 | -99.97809 | 24773 ft | 431 kts | 264° |
| 2026-05-07 03:53 | 19.35690 | -100.00979 | 25108 ft | 433 kts | 264° |
| 2026-05-07 03:53 | 19.35485 | -100.04164 | 25446 ft | 434 kts | 264° |
| 2026-05-07 03:53 | 19.35291 | -100.07365 | 25774 ft | 437 kts | 266° |
| 2026-05-07 03:53 | 19.35460 | -100.10542 | 26075 ft | 441 kts | 277° |
| 2026-05-07 03:54 | 19.36207 | -100.13702 | 26391 ft | 445 kts | 288° |
| 2026-05-07 03:54 | 19.37516 | -100.16681 | 26696 ft | 449 kts | 299° |
| 2026-05-07 03:54 | 19.39314 | -100.19400 | 27007 ft | 453 kts | 306° |
| 2026-05-07 03:54 | 19.41237 | -100.22050 | 27313 ft | 454 kts | 306° |
| 2026-05-07 03:55 | 19.43161 | -100.24711 | 27617 ft | 456 kts | 306° |
| 2026-05-07 03:55 | 19.45092 | -100.27384 | 27912 ft | 457 kts | 306° |
| 2026-05-07 03:55 | 19.47028 | -100.30063 | 28043 ft | 455 kts | 306° |
| 2026-05-07 03:56 | 19.50812 | -100.35297 | 28065 ft | 443 kts | 306° |
| 2026-05-07 03:56 | 19.54554 | -100.40468 | 28068 ft | 441 kts | 306° |
| 2026-05-07 03:57 | 19.58286 | -100.45632 | 28066 ft | 441 kts | 305° |
| 2026-05-07 03:57 | 19.62015 | -100.50797 | 28062 ft | 440 kts | 305° |
| 2026-05-07 03:58 | 19.65732 | -100.55955 | 28063 ft | 440 kts | 305° |
| 2026-05-07 03:58 | 19.69386 | -100.61156 | 28055 ft | 439 kts | 300° |
| 2026-05-07 03:59 | 19.71835 | -100.66983 | 28051 ft | 435 kts | 288° |
| 2026-05-07 03:59 | 19.73898 | -100.73022 | 28092 ft | 435 kts | 288° |
| 2026-05-07 04:00 | 19.75936 | -100.78973 | 28135 ft | 435 kts | 288° |
| 2026-05-07 04:00 | 19.78004 | -100.85010 | 28189 ft | 435 kts | 288° |
| 2026-05-07 04:01 | 19.80063 | -100.91046 | 28239 ft | 435 kts | 287° |
| 2026-05-07 04:01 | 19.82129 | -100.97075 | 28264 ft | 435 kts | 290° |
| 2026-05-07 04:01 | 19.83534 | -100.99934 | 28262 ft | 439 kts | 301° |
| 2026-05-07 04:02 | 19.85460 | -101.02452 | 28263 ft | 442 kts | 313° |
| 2026-05-07 04:02 | 19.87835 | -101.04548 | 27975 ft | 445 kts | 324° |
| 2026-05-07 04:02 | 19.90572 | -101.06088 | 27568 ft | 445 kts | 336° |
| 2026-05-07 04:02 | 19.93481 | -101.07206 | 27149 ft | 444 kts | 339° |
| 2026-05-07 04:03 | 19.96384 | -101.08308 | 26715 ft | 442 kts | 338° |
| 2026-05-07 04:03 | 19.99275 | -101.09416 | 26283 ft | 440 kts | 338° |
| 2026-05-07 04:03 | 20.02145 | -101.10518 | 25865 ft | 438 kts | 338° |
| 2026-05-07 04:03 | 20.05003 | -101.11617 | 25371 ft | 435 kts | 338° |
| 2026-05-07 04:04 | 20.07843 | -101.12710 | 24883 ft | 433 kts | 338° |
| 2026-05-07 04:04 | 20.10663 | -101.13800 | 24411 ft | 430 kts | 338° |
| 2026-05-07 04:04 | 20.13470 | -101.14886 | 23937 ft | 428 kts | 338° |
| 2026-05-07 04:04 | 20.16264 | -101.15963 | 23452 ft | 426 kts | 338° |
| 2026-05-07 04:05 | 20.19043 | -101.17034 | 22901 ft | 423 kts | 338° |
| 2026-05-07 04:05 | 20.21804 | -101.18098 | 22392 ft | 420 kts | 339° |
| 2026-05-07 04:05 | 20.24546 | -101.19154 | 21885 ft | 418 kts | 339° |
| 2026-05-07 04:05 | 20.27266 | -101.20199 | 21389 ft | 412 kts | 339° |
| 2026-05-07 04:06 | 20.29885 | -101.21205 | 20894 ft | 398 kts | 339° |
| 2026-05-07 04:06 | 20.32440 | -101.22185 | 20419 ft | 384 kts | 339° |
| 2026-05-07 04:06 | 20.34910 | -101.23135 | 19977 ft | 373 kts | 340° |
| 2026-05-07 04:06 | 20.37343 | -101.24072 | 19535 ft | 368 kts | 340° |
| 2026-05-07 04:07 | 20.39711 | -101.24985 | 19100 ft | 356 kts | 340° |
| 2026-05-07 04:07 | 20.42011 | -101.25831 | 18670 ft | 344 kts | 345° |
| 2026-05-07 04:07 | 20.44331 | -101.26314 | 18236 ft | 335 kts | 355° |
| 2026-05-07 04:07 | 20.46629 | -101.26438 | 17764 ft | 329 kts | 359° |
| 2026-05-07 04:08 | 20.48893 | -101.26509 | 17284 ft | 322 kts | 359° |
| 2026-05-07 04:08 | 20.50396 | -101.26557 | 16964 ft | 318 kts | 359° |
| 2026-05-07 04:08 | 20.52593 | -101.26627 | 16496 ft | 313 kts | 359° |
| 2026-05-07 04:08 | 20.54721 | -101.26695 | 16039 ft | 308 kts | 359° |
| 2026-05-07 04:09 | 20.56849 | -101.26759 | 15582 ft | 303 kts | 359° |
| 2026-05-07 04:09 | 20.58932 | -101.26822 | 15172 ft | 296 kts | 359° |
| 2026-05-07 04:09 | 20.60970 | -101.26885 | 14755 ft | 290 kts | 359° |
| 2026-05-07 04:09 | 20.62968 | -101.26949 | 14342 ft | 285 kts | 358° |
| 2026-05-07 04:10 | 20.64927 | -101.27009 | 13932 ft | 279 kts | 358° |
| 2026-05-07 04:10 | 20.66522 | -101.27058 | 13585 ft | 275 kts | 358° |
| 2026-05-07 04:10 | 20.67637 | -101.27092 | 13321 ft | 272 kts | 358° |
| 2026-05-07 04:10 | 20.69502 | -101.27150 | 12876 ft | 265 kts | 357° |
| 2026-05-07 04:11 | 20.71329 | -101.27209 | 12452 ft | 260 kts | 357° |
| 2026-05-07 04:11 | 20.73122 | -101.27269 | 12036 ft | 255 kts | 357° |
| 2026-05-07 04:11 | 20.74877 | -101.27326 | 11638 ft | 250 kts | 356° |
| 2026-05-07 04:11 | 20.76600 | -101.27384 | 11263 ft | 245 kts | 356° |
| 2026-05-07 04:12 | 20.78281 | -101.27439 | 10907 ft | 239 kts | 355° |
| 2026-05-07 04:12 | 20.79887 | -101.27753 | 10560 ft | 231 kts | 338° |
| 2026-05-07 04:12 | 20.81282 | -101.28501 | 10263 ft | 220 kts | 323° |
| 2026-05-07 04:12 | 20.82406 | -101.29561 | 9910 ft | 212 kts | 312° |
| 2026-05-07 04:13 | 20.83413 | -101.30668 | 9572 ft | 204 kts | 312° |
| 2026-05-07 04:13 | 20.84394 | -101.31740 | 9245 ft | 199 kts | 312° |
| 2026-05-07 04:13 | 20.85345 | -101.32779 | 8988 ft | 194 kts | 312° |
| 2026-05-07 04:13 | 20.86281 | -101.33804 | 8742 ft | 191 kts | 313° |
| 2026-05-07 04:14 | 20.87206 | -101.34818 | 8493 ft | 190 kts | 313° |
| 2026-05-07 04:14 | 20.88124 | -101.35822 | 8246 ft | 188 kts | 312° |
| 2026-05-07 04:14 | 20.89020 | -101.36803 | 8017 ft | 186 kts | 313° |
| 2026-05-07 04:14 | 20.89916 | -101.37784 | 7792 ft | 183 kts | 313° |
| 2026-05-07 04:15 | 20.90803 | -101.38755 | 7637 ft | 182 kts | 313° |
| 2026-05-07 04:15 | 20.91653 | -101.39685 | 7612 ft | 168 kts | 313° |
| 2026-05-07 04:15 | 20.92459 | -101.40565 | 7518 ft | 163 kts | 314° |
| 2026-05-07 04:15 | 20.93246 | -101.41425 | 7407 ft | 161 kts | 313° |
| 2026-05-07 04:16 | 20.94022 | -101.42275 | 7266 ft | 160 kts | 313° |
| 2026-05-07 04:16 | 20.94788 | -101.43131 | 7105 ft | 159 kts | 312° |
| 2026-05-07 04:16 | 20.95559 | -101.43973 | 6876 ft | 158 kts | 314° |
| 2026-05-07 04:16 | 20.96325 | -101.44804 | 6583 ft | 156 kts | 312° |
| 2026-05-07 04:17 | 20.97084 | -101.45635 | 6350 ft | 156 kts | 312° |
| 2026-05-07 04:17 | 20.97833 | -101.46471 | 6099 ft | 154 kts | 313° |
| 2026-05-07 04:17 | 20.98573 | -101.47267 | 5976 ft | 142 kts | 312° |
| 2026-05-07 04:17 | 20.99151 | -101.47907 | 5971 ft | 95 kts | 315° |
| 2026-05-07 04:18 | 20.99497 | -101.48283 | 5972 ft | 50 kts | 315° |
| 2026-05-07 04:18 | 20.99668 | -101.48467 | 5972 ft | 25 kts | 316° |
| 2026-05-07 04:18 | 20.99714 | -101.48565 | 5972 ft | 14 kts | 240° |
| 2026-05-07 04:18 | 20.99645 | -101.48642 | 5971 ft | 15 kts | 223° |
| 2026-05-07 04:19 | 20.99568 | -101.48634 | 5971 ft | 13 kts | 136° |
| 2026-05-07 04:19 | 20.99511 | -101.48574 | 5973 ft | 10 kts | 135° |
| 2026-05-07 04:19 | 20.99465 | -101.48525 | 5972 ft | 8 kts | 134° |
| 2026-05-07 04:19 | 20.99428 | -101.48484 | 5973 ft | 8 kts | 134° |
| 2026-05-07 04:20 | 20.99380 | -101.48431 | 5973 ft | 12 kts | 134° |
| 2026-05-07 04:20 | 20.99314 | -101.48359 | 5974 ft | 16 kts | 136° |
| 2026-05-07 04:20 | 20.99229 | -101.48266 | 5971 ft | 19 kts | 134° |
| 2026-05-07 04:21 | 20.99011 | -101.48026 | 5972 ft | 26 kts | 134° |
| 2026-05-07 04:21 | 20.98886 | -101.47884 | 5973 ft | 24 kts | 133° |
| 2026-05-07 04:21 | 20.98808 | -101.47802 | 5973 ft | 12 kts | 146° |
| 2026-05-07 04:21 | 20.98738 | -101.47807 | 5972 ft | 10 kts | 193° |
| 2026-05-07 04:22 | 20.98717 | -101.47807 | 5971 ft | 8 kts | 174° |
| 2026-05-07 04:22 | 20.98667 | -101.47827 | 5971 ft | 3 kts | 227° |
| 2026-05-07 04:22 | 20.98654 | -101.47841 | 5971 ft | 0 kts | 225° |